sensor_id;sensor_type;location;lat;lon;timestamp;temperature;humidity
16517;DHT22;8371;52.272;9.746;2022-08-25T00:00:59;21.30;45.70
16517;DHT22;8371;52.272;9.746;2022-08-25T00:03:25;21.20;45.80
16517;DHT22;8371;52.272;9.746;2022-08-25T00:05:50;21.10;45.80
16517;DHT22;8371;52.272;9.746;2022-08-25T00:08:16;21.00;46.00
16517;DHT22;8371;52.272;9.746;2022-08-25T00:10:41;20.90;46.00
16517;DHT22;8371;52.272;9.746;2022-08-25T00:13:07;20.80;46.30
16517;DHT22;8371;52.272;9.746;2022-08-25T00:15:34;20.70;46.40
16517;DHT22;8371;52.272;9.746;2022-08-25T00:18:00;20.60;46.50
16517;DHT22;8371;52.272;9.746;2022-08-25T00:20:27;20.60;46.70
16517;DHT22;8371;52.272;9.746;2022-08-25T00:22:54;20.50;46.80
16517;DHT22;8371;52.272;9.746;2022-08-25T00:25:20;20.40;46.90
16517;DHT22;8371;52.272;9.746;2022-08-25T00:27:49;20.30;47.00
16517;DHT22;8371;52.272;9.746;2022-08-25T00:30:16;20.20;47.20
16517;DHT22;8371;52.272;9.746;2022-08-25T00:32:43;20.10;47.30
16517;DHT22;8371;52.272;9.746;2022-08-25T00:35:09;20.00;47.50
16517;DHT22;8371;52.272;9.746;2022-08-25T00:37:35;20.00;47.70
16517;DHT22;8371;52.272;9.746;2022-08-25T00:40:04;19.90;47.80
16517;DHT22;8371;52.272;9.746;2022-08-25T00:42:30;19.80;48.00
16517;DHT22;8371;52.272;9.746;2022-08-25T00:44:56;19.70;48.10
16517;DHT22;8371;52.272;9.746;2022-08-25T00:47:24;19.70;48.30
16517;DHT22;8371;52.272;9.746;2022-08-25T00:49:55;19.70;48.50
16517;DHT22;8371;52.272;9.746;2022-08-25T00:52:35;19.60;48.60
16517;DHT22;8371;52.272;9.746;2022-08-25T00:57:39;19.60;48.80
16517;DHT22;8371;52.272;9.746;2022-08-25T01:00:13;19.50;48.70
16517;DHT22;8371;52.272;9.746;2022-08-25T01:02:38;19.50;48.80
16517;DHT22;8371;52.272;9.746;2022-08-25T01:05:05;19.40;48.80
16517;DHT22;8371;52.272;9.746;2022-08-25T01:07:30;19.40;48.90
16517;DHT22;8371;52.272;9.746;2022-08-25T01:09:58;19.30;49.10
16517;DHT22;8371;52.272;9.746;2022-08-25T01:12:25;19.30;49.20
16517;DHT22;8371;52.272;9.746;2022-08-25T01:14:52;19.20;49.30
16517;DHT22;8371;52.272;9.746;2022-08-25T01:17:18;19.20;49.40
16517;DHT22;8371;52.272;9.746;2022-08-25T01:19:45;19.10;49.50
16517;DHT22;8371;52.272;9.746;2022-08-25T01:22:10;19.10;49.70
16517;DHT22;8371;52.272;9.746;2022-08-25T01:24:56;19.00;49.80
16517;DHT22;8371;52.272;9.746;2022-08-25T01:27:21;19.00;50.00
16517;DHT22;8371;52.272;9.746;2022-08-25T01:29:47;19.00;50.10
16517;DHT22;8371;52.272;9.746;2022-08-25T01:32:13;18.90;50.30
16517;DHT22;8371;52.272;9.746;2022-08-25T01:34:41;18.90;50.50
16517;DHT22;8371;52.272;9.746;2022-08-25T01:37:10;18.90;50.60
16517;DHT22;8371;52.272;9.746;2022-08-25T01:39:36;18.90;50.50
16517;DHT22;8371;52.272;9.746;2022-08-25T01:44:40;18.80;50.60
16517;DHT22;8371;52.272;9.746;2022-08-25T01:47:03;18.70;50.60
16517;DHT22;8371;52.272;9.746;2022-08-25T01:49:30;18.80;50.70
16517;DHT22;8371;52.272;9.746;2022-08-25T01:54:32;18.70;50.90
16517;DHT22;8371;52.272;9.746;2022-08-25T01:56:58;18.60;51.00
16517;DHT22;8371;52.272;9.746;2022-08-25T01:59:24;18.60;51.20
16517;DHT22;8371;52.272;9.746;2022-08-25T02:01:51;18.60;51.50
16517;DHT22;8371;52.272;9.746;2022-08-25T02:04:17;18.60;51.50
16517;DHT22;8371;52.272;9.746;2022-08-25T02:06:43;18.60;51.50
16517;DHT22;8371;52.272;9.746;2022-08-25T02:09:11;18.50;51.50
16517;DHT22;8371;52.272;9.746;2022-08-25T02:11:39;18.50;51.60
16517;DHT22;8371;52.272;9.746;2022-08-25T02:14:07;18.50;51.60
16517;DHT22;8371;52.272;9.746;2022-08-25T02:16:35;18.50;51.70
16517;DHT22;8371;52.272;9.746;2022-08-25T02:19:04;18.50;52.00
16517;DHT22;8371;52.272;9.746;2022-08-25T02:21:31;18.50;52.20
16517;DHT22;8371;52.272;9.746;2022-08-25T02:23:58;18.50;52.40
16517;DHT22;8371;52.272;9.746;2022-08-25T02:26:24;18.50;52.60
16517;DHT22;8371;52.272;9.746;2022-08-25T02:28:50;18.50;52.80
16517;DHT22;8371;52.272;9.746;2022-08-25T02:31:18;18.50;53.20
16517;DHT22;8371;52.272;9.746;2022-08-25T02:33:44;18.60;53.30
16517;DHT22;8371;52.272;9.746;2022-08-25T02:36:10;18.60;53.50
16517;DHT22;8371;52.272;9.746;2022-08-25T02:38:36;18.70;53.70
16517;DHT22;8371;52.272;9.746;2022-08-25T02:41:14;18.70;53.70
16517;DHT22;8371;52.272;9.746;2022-08-25T02:43:43;18.80;53.90
16517;DHT22;8371;52.272;9.746;2022-08-25T02:46:11;18.80;53.80
16517;DHT22;8371;52.272;9.746;2022-08-25T02:48:38;18.90;53.90
16517;DHT22;8371;52.272;9.746;2022-08-25T02:51:06;18.90;53.90
16517;DHT22;8371;52.272;9.746;2022-08-25T02:53:34;18.90;53.80
16517;DHT22;8371;52.272;9.746;2022-08-25T02:56:00;18.90;53.80
16517;DHT22;8371;52.272;9.746;2022-08-25T02:58:26;19.00;53.70
16517;DHT22;8371;52.272;9.746;2022-08-25T03:00:52;19.00;53.70
16517;DHT22;8371;52.272;9.746;2022-08-25T03:03:18;19.00;53.80
16517;DHT22;8371;52.272;9.746;2022-08-25T03:05:44;19.00;53.70
16517;DHT22;8371;52.272;9.746;2022-08-25T03:08:11;18.90;53.70
16517;DHT22;8371;52.272;9.746;2022-08-25T03:10:37;19.00;53.70
16517;DHT22;8371;52.272;9.746;2022-08-25T03:13:03;18.90;53.70
16517;DHT22;8371;52.272;9.746;2022-08-25T03:15:29;18.80;53.70
16517;DHT22;8371;52.272;9.746;2022-08-25T03:17:55;18.80;53.60
16517;DHT22;8371;52.272;9.746;2022-08-25T03:20:23;18.80;53.60
16517;DHT22;8371;52.272;9.746;2022-08-25T03:22:50;18.70;53.60
16517;DHT22;8371;52.272;9.746;2022-08-25T03:25:16;18.60;53.70
16517;DHT22;8371;52.272;9.746;2022-08-25T03:28:02;18.50;53.90
16517;DHT22;8371;52.272;9.746;2022-08-25T03:30:28;18.50;53.90
16517;DHT22;8371;52.272;9.746;2022-08-25T03:32:53;18.40;54.10
16517;DHT22;8371;52.272;9.746;2022-08-25T03:35:19;18.30;54.20
16517;DHT22;8371;52.272;9.746;2022-08-25T03:37:45;18.20;54.10
16517;DHT22;8371;52.272;9.746;2022-08-25T03:40:12;18.20;54.10
16517;DHT22;8371;52.272;9.746;2022-08-25T03:42:40;18.10;54.10
16517;DHT22;8371;52.272;9.746;2022-08-25T03:45:08;18.10;54.40
16517;DHT22;8371;52.272;9.746;2022-08-25T03:47:36;18.10;54.60
16517;DHT22;8371;52.272;9.746;2022-08-25T03:50:03;18.00;54.80
16517;DHT22;8371;52.272;9.746;2022-08-25T03:52:29;18.00;54.80
16517;DHT22;8371;52.272;9.746;2022-08-25T03:54:55;17.90;54.90
16517;DHT22;8371;52.272;9.746;2022-08-25T03:57:21;17.90;55.00
16517;DHT22;8371;52.272;9.746;2022-08-25T03:59:46;17.90;55.00
16517;DHT22;8371;52.272;9.746;2022-08-25T04:02:13;17.80;55.10
16517;DHT22;8371;52.272;9.746;2022-08-25T04:04:39;17.80;55.10
16517;DHT22;8371;52.272;9.746;2022-08-25T04:07:05;17.80;54.70
16517;DHT22;8371;52.272;9.746;2022-08-25T04:09:31;17.70;54.70
16517;DHT22;8371;52.272;9.746;2022-08-25T04:11:57;17.70;54.90
16517;DHT22;8371;52.272;9.746;2022-08-25T04:14:23;17.60;55.10
16517;DHT22;8371;52.272;9.746;2022-08-25T04:16:48;17.60;55.30
16517;DHT22;8371;52.272;9.746;2022-08-25T04:19:14;17.60;55.40
16517;DHT22;8371;52.272;9.746;2022-08-25T04:21:40;17.50;55.50
16517;DHT22;8371;52.272;9.746;2022-08-25T04:24:08;17.50;55.50
16517;DHT22;8371;52.272;9.746;2022-08-25T04:26:41;17.50;55.40
16517;DHT22;8371;52.272;9.746;2022-08-25T04:29:07;17.40;55.50
16517;DHT22;8371;52.272;9.746;2022-08-25T04:31:35;17.40;55.60
16517;DHT22;8371;52.272;9.746;2022-08-25T04:34:02;17.40;55.70
16517;DHT22;8371;52.272;9.746;2022-08-25T04:36:28;17.40;55.90
16517;DHT22;8371;52.272;9.746;2022-08-25T04:38:54;17.40;56.00
16517;DHT22;8371;52.272;9.746;2022-08-25T04:41:22;17.40;56.20
16517;DHT22;8371;52.272;9.746;2022-08-25T04:43:49;17.40;56.10
16517;DHT22;8371;52.272;9.746;2022-08-25T04:46:18;17.50;56.70
16517;DHT22;8371;52.272;9.746;2022-08-25T04:48:44;17.40;56.60
16517;DHT22;8371;52.272;9.746;2022-08-25T04:51:12;17.40;56.30
16517;DHT22;8371;52.272;9.746;2022-08-25T04:53:39;17.60;56.50
16517;DHT22;8371;52.272;9.746;2022-08-25T04:56:11;17.60;56.40
16517;DHT22;8371;52.272;9.746;2022-08-25T04:58:38;17.60;56.50
16517;DHT22;8371;52.272;9.746;2022-08-25T05:01:06;17.70;56.70
16517;DHT22;8371;52.272;9.746;2022-08-25T05:03:33;17.70;56.80
16517;DHT22;8371;52.272;9.746;2022-08-25T05:06:00;17.80;56.80
16517;DHT22;8371;52.272;9.746;2022-08-25T05:08:26;17.90;56.90
16517;DHT22;8371;52.272;9.746;2022-08-25T05:10:52;17.90;57.00
16517;DHT22;8371;52.272;9.746;2022-08-25T05:13:20;18.00;57.20
16517;DHT22;8371;52.272;9.746;2022-08-25T05:15:57;18.10;57.20
16517;DHT22;8371;52.272;9.746;2022-08-25T05:18:26;18.20;57.20
16517;DHT22;8371;52.272;9.746;2022-08-25T05:20:53;18.30;57.30
16517;DHT22;8371;52.272;9.746;2022-08-25T05:23:20;18.40;57.40
16517;DHT22;8371;52.272;9.746;2022-08-25T05:25:47;18.40;57.50
16517;DHT22;8371;52.272;9.746;2022-08-25T05:28:13;18.50;57.50
16517;DHT22;8371;52.272;9.746;2022-08-25T05:30:41;18.60;57.60
16517;DHT22;8371;52.272;9.746;2022-08-25T05:33:08;19.30;58.80
16517;DHT22;8371;52.272;9.746;2022-08-25T05:35:34;19.00;57.90
16517;DHT22;8371;52.272;9.746;2022-08-25T05:38:01;19.10;58.00
16517;DHT22;8371;52.272;9.746;2022-08-25T05:40:29;19.20;58.20
16517;DHT22;8371;52.272;9.746;2022-08-25T05:42:54;19.30;66.20
16517;DHT22;8371;52.272;9.746;2022-08-25T05:45:20;19.60;58.60
16517;DHT22;8371;52.272;9.746;2022-08-25T05:47:46;19.60;59.30
16517;DHT22;8371;52.272;9.746;2022-08-25T05:50:11;19.80;58.70
16517;DHT22;8371;52.272;9.746;2022-08-25T05:52:37;20.00;58.80
16517;DHT22;8371;52.272;9.746;2022-08-25T05:55:05;20.20;58.80
16517;DHT22;8371;52.272;9.746;2022-08-25T05:57:31;20.50;58.60
16517;DHT22;8371;52.272;9.746;2022-08-25T05:59:57;20.70;59.20
16517;DHT22;8371;52.272;9.746;2022-08-25T06:02:23;20.90;58.60
16517;DHT22;8371;52.272;9.746;2022-08-25T06:05:17;21.10;58.50
16517;DHT22;8371;52.272;9.746;2022-08-25T06:07:44;21.40;58.40
16517;DHT22;8371;52.272;9.746;2022-08-25T06:10:11;21.60;58.30
16517;DHT22;8371;52.272;9.746;2022-08-25T06:12:40;21.80;58.30
16517;DHT22;8371;52.272;9.746;2022-08-25T06:15:06;22.00;58.10
16517;DHT22;8371;52.272;9.746;2022-08-25T06:17:32;22.30;58.10
16517;DHT22;8371;52.272;9.746;2022-08-25T06:20:04;22.50;57.90
16517;DHT22;8371;52.272;9.746;2022-08-25T06:22:30;22.70;57.70
16517;DHT22;8371;52.272;9.746;2022-08-25T06:24:56;23.00;57.50
16517;DHT22;8371;52.272;9.746;2022-08-25T06:27:22;23.20;57.80
16517;DHT22;8371;52.272;9.746;2022-08-25T06:29:48;23.40;57.30
16517;DHT22;8371;52.272;9.746;2022-08-25T06:32:14;23.60;57.20
16517;DHT22;8371;52.272;9.746;2022-08-25T06:34:39;23.80;57.00
16517;DHT22;8371;52.272;9.746;2022-08-25T06:37:05;24.00;56.80
16517;DHT22;8371;52.272;9.746;2022-08-25T06:39:31;24.30;56.80
16517;DHT22;8371;52.272;9.746;2022-08-25T06:41:57;24.50;56.50
16517;DHT22;8371;52.272;9.746;2022-08-25T06:44:23;24.60;56.20
16517;DHT22;8371;52.272;9.746;2022-08-25T06:46:49;24.80;56.00
16517;DHT22;8371;52.272;9.746;2022-08-25T06:49:15;25.00;55.90
16517;DHT22;8371;52.272;9.746;2022-08-25T06:51:41;25.20;55.80
16517;DHT22;8371;52.272;9.746;2022-08-25T06:54:08;25.40;55.70
16517;DHT22;8371;52.272;9.746;2022-08-25T06:56:39;25.60;55.70
16517;DHT22;8371;52.272;9.746;2022-08-25T06:59:07;25.70;55.40
16517;DHT22;8371;52.272;9.746;2022-08-25T07:01:33;25.90;55.30
16517;DHT22;8371;52.272;9.746;2022-08-25T07:04:02;26.00;55.10
16517;DHT22;8371;52.272;9.746;2022-08-25T07:06:30;26.20;55.10
16517;DHT22;8371;52.272;9.746;2022-08-25T07:08:56;26.30;55.00
16517;DHT22;8371;52.272;9.746;2022-08-25T07:11:23;26.50;54.70
16517;DHT22;8371;52.272;9.746;2022-08-25T07:13:49;26.60;54.60
16517;DHT22;8371;52.272;9.746;2022-08-25T07:16:17;26.80;54.60
16517;DHT22;8371;52.272;9.746;2022-08-25T07:18:44;26.90;54.50
16517;DHT22;8371;52.272;9.746;2022-08-25T07:21:11;27.00;54.30
16517;DHT22;8371;52.272;9.746;2022-08-25T07:23:38;27.20;54.30
16517;DHT22;8371;52.272;9.746;2022-08-25T07:28:39;27.40;53.70
16517;DHT22;8371;52.272;9.746;2022-08-25T07:31:05;27.60;53.60
16517;DHT22;8371;52.272;9.746;2022-08-25T07:33:31;27.60;53.40
16517;DHT22;8371;52.272;9.746;2022-08-25T07:35:57;27.80;53.40
16517;DHT22;8371;52.272;9.746;2022-08-25T07:38:23;27.90;53.30
16517;DHT22;8371;52.272;9.746;2022-08-25T07:40:49;28.00;52.90
16517;DHT22;8371;52.272;9.746;2022-08-25T07:43:17;28.10;52.80
16517;DHT22;8371;52.272;9.746;2022-08-25T07:45:42;28.20;52.90
16517;DHT22;8371;52.272;9.746;2022-08-25T07:48:09;28.20;52.80
16517;DHT22;8371;52.272;9.746;2022-08-25T07:50:37;28.40;52.70
16517;DHT22;8371;52.272;9.746;2022-08-25T07:53:03;28.50;52.90
16517;DHT22;8371;52.272;9.746;2022-08-25T07:55:30;28.60;52.60
16517;DHT22;8371;52.272;9.746;2022-08-25T07:57:57;28.70;52.60
16517;DHT22;8371;52.272;9.746;2022-08-25T08:00:25;28.90;52.60
16517;DHT22;8371;52.272;9.746;2022-08-25T08:02:52;29.10;52.50
16517;DHT22;8371;52.272;9.746;2022-08-25T08:05:18;29.20;52.40
16517;DHT22;8371;52.272;9.746;2022-08-25T08:07:43;29.30;52.20
16517;DHT22;8371;52.272;9.746;2022-08-25T08:10:12;29.50;52.00
16517;DHT22;8371;52.272;9.746;2022-08-25T08:12:38;29.60;52.00
16517;DHT22;8371;52.272;9.746;2022-08-25T08:15:04;29.70;51.80
16517;DHT22;8371;52.272;9.746;2022-08-25T08:17:30;29.90;51.70
16517;DHT22;8371;52.272;9.746;2022-08-25T08:19:57;30.00;51.60
16517;DHT22;8371;52.272;9.746;2022-08-25T08:22:23;30.10;51.50
16517;DHT22;8371;52.272;9.746;2022-08-25T08:24:48;30.30;51.30
16517;DHT22;8371;52.272;9.746;2022-08-25T08:27:14;30.40;51.30
16517;DHT22;8371;52.272;9.746;2022-08-25T08:29:41;30.50;51.20
16517;DHT22;8371;52.272;9.746;2022-08-25T08:32:09;30.70;51.60
16517;DHT22;8371;52.272;9.746;2022-08-25T08:34:37;30.80;50.80
16517;DHT22;8371;52.272;9.746;2022-08-25T08:37:03;30.90;50.60
16517;DHT22;8371;52.272;9.746;2022-08-25T08:39:29;31.00;50.40
16517;DHT22;8371;52.272;9.746;2022-08-25T08:42:15;31.10;50.90
16517;DHT22;8371;52.272;9.746;2022-08-25T08:45:00;31.20;50.20
16517;DHT22;8371;52.272;9.746;2022-08-25T08:47:46;31.40;50.10
16517;DHT22;8371;52.272;9.746;2022-08-25T08:50:48;31.40;49.90
16517;DHT22;8371;52.272;9.746;2022-08-25T08:56:00;31.60;49.60
16517;DHT22;8371;52.272;9.746;2022-08-25T08:58:45;31.70;49.40
16517;DHT22;8371;52.272;9.746;2022-08-25T09:01:15;31.80;49.30
16517;DHT22;8371;52.272;9.746;2022-08-25T09:03:42;31.80;49.30
16517;DHT22;8371;52.272;9.746;2022-08-25T09:06:58;31.80;49.00
16517;DHT22;8371;52.272;9.746;2022-08-25T09:08:42;31.90;49.30
16517;DHT22;8371;52.272;9.746;2022-08-25T09:20:00;32.40;49.00
16517;DHT22;8371;52.272;9.746;2022-08-25T09:25:18;32.60;48.70
16517;DHT22;8371;52.272;9.746;2022-08-25T09:30:49;32.80;48.10
16517;DHT22;8371;52.272;9.746;2022-08-25T09:33:17;32.90;47.70
16517;DHT22;8371;52.272;9.746;2022-08-25T09:35:42;32.90;47.70
16517;DHT22;8371;52.272;9.746;2022-08-25T09:38:11;33.00;47.70
16517;DHT22;8371;52.272;9.746;2022-08-25T09:40:43;33.10;47.70
16517;DHT22;8371;52.272;9.746;2022-08-25T09:43:28;33.20;47.50
16517;DHT22;8371;52.272;9.746;2022-08-25T09:48:41;33.50;47.10
16517;DHT22;8371;52.272;9.746;2022-08-25T09:51:24;33.60;46.90
16517;DHT22;8371;52.272;9.746;2022-08-25T09:53:55;33.70;46.70
16517;DHT22;8371;52.272;9.746;2022-08-25T09:56:25;33.80;46.00
16517;DHT22;8371;52.272;9.746;2022-08-25T09:58:53;33.90;45.60
16517;DHT22;8371;52.272;9.746;2022-08-25T10:01:20;34.00;45.80
16517;DHT22;8371;52.272;9.746;2022-08-25T10:03:56;34.00;46.00
16517;DHT22;8371;52.272;9.746;2022-08-25T10:06:23;34.10;45.80
16517;DHT22;8371;52.272;9.746;2022-08-25T10:08:55;34.20;45.40
16517;DHT22;8371;52.272;9.746;2022-08-25T10:11:37;34.30;45.30
16517;DHT22;8371;52.272;9.746;2022-08-25T10:16:38;34.50;45.00
16517;DHT22;8371;52.272;9.746;2022-08-25T10:22:09;34.60;44.80
16517;DHT22;8371;52.272;9.746;2022-08-25T10:24:38;34.80;44.60
16517;DHT22;8371;52.272;9.746;2022-08-25T10:27:17;34.90;44.40
16517;DHT22;8371;52.272;9.746;2022-08-25T10:29:56;35.00;44.80
16517;DHT22;8371;52.272;9.746;2022-08-25T10:35:25;35.00;43.40
16517;DHT22;8371;52.272;9.746;2022-08-25T10:41:04;35.00;43.70
16517;DHT22;8371;52.272;9.746;2022-08-25T10:43:32;35.10;43.30
16517;DHT22;8371;52.272;9.746;2022-08-25T10:46:14;35.20;43.10
16517;DHT22;8371;52.272;9.746;2022-08-25T10:49:17;35.10;42.70
16517;DHT22;8371;52.272;9.746;2022-08-25T10:54:40;35.10;42.70
16517;DHT22;8371;52.272;9.746;2022-08-25T10:57:15;35.10;42.90
16517;DHT22;8371;52.272;9.746;2022-08-25T11:00:14;35.10;42.50
16517;DHT22;8371;52.272;9.746;2022-08-25T11:02:52;35.10;42.80
16517;DHT22;8371;52.272;9.746;2022-08-25T11:05:26;35.30;42.90
16517;DHT22;8371;52.272;9.746;2022-08-25T11:08:02;35.30;42.60
16517;DHT22;8371;52.272;9.746;2022-08-25T11:10:39;35.50;42.60
16517;DHT22;8371;52.272;9.746;2022-08-25T11:13:18;35.60;42.30
16517;DHT22;8371;52.272;9.746;2022-08-25T11:18:16;35.70;41.80
16517;DHT22;8371;52.272;9.746;2022-08-25T11:23:23;35.60;41.20
16517;DHT22;8371;52.272;9.746;2022-08-25T11:25:52;35.50;41.40
16517;DHT22;8371;52.272;9.746;2022-08-25T11:28:29;35.50;41.40
16517;DHT22;8371;52.272;9.746;2022-08-25T11:30:55;35.40;41.10
16517;DHT22;8371;52.272;9.746;2022-08-25T11:33:23;35.40;41.20
16517;DHT22;8371;52.272;9.746;2022-08-25T11:35:59;35.40;42.00
16517;DHT22;8371;52.272;9.746;2022-08-25T11:41:36;35.40;41.20
16517;DHT22;8371;52.272;9.746;2022-08-25T11:49:45;35.50;41.30
16517;DHT22;8371;52.272;9.746;2022-08-25T11:55:09;35.50;41.00
16517;DHT22;8371;52.272;9.746;2022-08-25T11:57:33;35.50;40.90
16517;DHT22;8371;52.272;9.746;2022-08-25T12:00:18;35.50;40.60
16517;DHT22;8371;52.272;9.746;2022-08-25T12:02:48;35.60;40.80
16517;DHT22;8371;52.272;9.746;2022-08-25T12:08:01;35.60;40.70
16517;DHT22;8371;52.272;9.746;2022-08-25T12:13:44;35.60;40.40
16517;DHT22;8371;52.272;9.746;2022-08-25T12:16:35;35.60;40.20
16517;DHT22;8371;52.272;9.746;2022-08-25T12:32:39;35.70;40.20
16517;DHT22;8371;52.272;9.746;2022-08-25T12:35:23;35.80;39.90
16517;DHT22;8371;52.272;9.746;2022-08-25T12:38:13;35.80;39.70
16517;DHT22;8371;52.272;9.746;2022-08-25T12:43:29;36.00;39.50
16517;DHT22;8371;52.272;9.746;2022-08-25T12:48:56;36.00;39.20
16517;DHT22;8371;52.272;9.746;2022-08-25T12:51:39;36.00;39.00
16517;DHT22;8371;52.272;9.746;2022-08-25T12:59:18;36.20;39.10
16517;DHT22;8371;52.272;9.746;2022-08-25T13:07:13;36.50;38.60
16517;DHT22;8371;52.272;9.746;2022-08-25T13:15:12;36.90;38.60
16517;DHT22;8371;52.272;9.746;2022-08-25T13:17:39;37.10;38.30
16517;DHT22;8371;52.272;9.746;2022-08-25T13:20:21;37.20;37.90
16517;DHT22;8371;52.272;9.746;2022-08-25T13:22:48;37.40;37.70
16517;DHT22;8371;52.272;9.746;2022-08-25T13:25:17;37.50;37.60
16517;DHT22;8371;52.272;9.746;2022-08-25T13:27:50;37.60;37.40
16517;DHT22;8371;52.272;9.746;2022-08-25T13:30:31;37.70;37.20
16517;DHT22;8371;52.272;9.746;2022-08-25T13:32:58;37.70;37.20
16517;DHT22;8371;52.272;9.746;2022-08-25T13:35:29;37.70;36.90
16517;DHT22;8371;52.272;9.746;2022-08-25T13:38:15;37.80;36.90
16517;DHT22;8371;52.272;9.746;2022-08-25T13:40:41;37.80;36.90
16517;DHT22;8371;52.272;9.746;2022-08-25T13:43:09;37.80;36.70
16517;DHT22;8371;52.272;9.746;2022-08-25T13:45:39;37.80;36.70
16517;DHT22;8371;52.272;9.746;2022-08-25T13:48:05;37.80;36.50
16517;DHT22;8371;52.272;9.746;2022-08-25T13:50:34;37.90;36.50
16517;DHT22;8371;52.272;9.746;2022-08-25T13:53:09;37.90;36.10
16517;DHT22;8371;52.272;9.746;2022-08-25T13:55:52;37.90;35.80
16517;DHT22;8371;52.272;9.746;2022-08-25T13:58:21;37.90;36.00
16517;DHT22;8371;52.272;9.746;2022-08-25T14:03:40;37.70;35.70
16517;DHT22;8371;52.272;9.746;2022-08-25T14:08:44;37.60;35.80
16517;DHT22;8371;52.272;9.746;2022-08-25T14:11:28;37.60;35.70
16517;DHT22;8371;52.272;9.746;2022-08-25T14:14:13;37.60;35.70
16517;DHT22;8371;52.272;9.746;2022-08-25T14:16:46;37.60;35.50
16517;DHT22;8371;52.272;9.746;2022-08-25T14:19:15;37.50;35.50
16517;DHT22;8371;52.272;9.746;2022-08-25T14:21:41;37.50;35.40
16517;DHT22;8371;52.272;9.746;2022-08-25T14:24:07;37.50;35.50
16517;DHT22;8371;52.272;9.746;2022-08-25T14:26:33;37.50;35.60
16517;DHT22;8371;52.272;9.746;2022-08-25T14:28:59;37.50;35.60
16517;DHT22;8371;52.272;9.746;2022-08-25T14:36:28;37.60;35.40
16517;DHT22;8371;52.272;9.746;2022-08-25T14:38:55;37.60;35.40
16517;DHT22;8371;52.272;9.746;2022-08-25T14:41:23;37.60;35.40
16517;DHT22;8371;52.272;9.746;2022-08-25T14:43:49;37.60;35.20
16517;DHT22;8371;52.272;9.746;2022-08-25T14:46:18;37.50;35.00
16517;DHT22;8371;52.272;9.746;2022-08-25T14:48:45;37.50;35.20
16517;DHT22;8371;52.272;9.746;2022-08-25T14:51:13;37.40;34.90
16517;DHT22;8371;52.272;9.746;2022-08-25T14:53:40;37.40;34.90
16517;DHT22;8371;52.272;9.746;2022-08-25T14:56:06;37.30;34.90
16517;DHT22;8371;52.272;9.746;2022-08-25T14:58:32;37.30;34.90
16517;DHT22;8371;52.272;9.746;2022-08-25T15:00:57;37.30;35.10
16517;DHT22;8371;52.272;9.746;2022-08-25T15:03:37;37.30;35.10
16517;DHT22;8371;52.272;9.746;2022-08-25T15:06:00;37.30;34.80
16517;DHT22;8371;52.272;9.746;2022-08-25T15:08:25;37.20;34.90
16517;DHT22;8371;52.272;9.746;2022-08-25T15:11:10;37.20;34.70
16517;DHT22;8371;52.272;9.746;2022-08-25T15:13:36;37.00;34.80
16517;DHT22;8371;52.272;9.746;2022-08-25T15:16:02;36.90;34.90
16517;DHT22;8371;52.272;9.746;2022-08-25T15:18:27;36.80;35.00
16517;DHT22;8371;52.272;9.746;2022-08-25T15:20:54;36.70;35.00
16517;DHT22;8371;52.272;9.746;2022-08-25T15:23:20;36.70;35.10
16517;DHT22;8371;52.272;9.746;2022-08-25T15:25:47;36.60;35.10
16517;DHT22;8371;52.272;9.746;2022-08-25T15:28:14;36.60;35.20
16517;DHT22;8371;52.272;9.746;2022-08-25T15:30:40;36.50;35.10
16517;DHT22;8371;52.272;9.746;2022-08-25T15:33:06;36.40;35.20
16517;DHT22;8371;52.272;9.746;2022-08-25T15:35:32;36.30;35.10
16517;DHT22;8371;52.272;9.746;2022-08-25T15:37:59;36.20;35.20
16517;DHT22;8371;52.272;9.746;2022-08-25T15:40:25;36.10;35.40
16517;DHT22;8371;52.272;9.746;2022-08-25T15:42:52;36.00;35.30
16517;DHT22;8371;52.272;9.746;2022-08-25T15:45:18;35.90;35.40
16517;DHT22;8371;52.272;9.746;2022-08-25T15:47:44;35.80;35.60
16517;DHT22;8371;52.272;9.746;2022-08-25T15:50:13;35.80;35.70
16517;DHT22;8371;52.272;9.746;2022-08-25T15:52:40;35.70;35.80
16517;DHT22;8371;52.272;9.746;2022-08-25T15:55:07;35.60;35.80
16517;DHT22;8371;52.272;9.746;2022-08-25T15:57:33;35.50;36.70
16517;DHT22;8371;52.272;9.746;2022-08-25T15:59:59;35.40;36.00
16517;DHT22;8371;52.272;9.746;2022-08-25T16:02:25;35.40;36.20
16517;DHT22;8371;52.272;9.746;2022-08-25T16:04:52;35.30;36.20
16517;DHT22;8371;52.272;9.746;2022-08-25T16:07:19;35.30;36.20
16517;DHT22;8371;52.272;9.746;2022-08-25T16:09:45;35.20;36.20
16517;DHT22;8371;52.272;9.746;2022-08-25T16:12:11;35.10;36.20
16517;DHT22;8371;52.272;9.746;2022-08-25T16:14:37;35.00;36.20
16517;DHT22;8371;52.272;9.746;2022-08-25T16:17:04;34.90;36.40
16517;DHT22;8371;52.272;9.746;2022-08-25T16:19:30;34.80;36.50
16517;DHT22;8371;52.272;9.746;2022-08-25T16:21:57;34.70;36.70
16517;DHT22;8371;52.272;9.746;2022-08-25T16:24:23;34.60;36.80
16517;DHT22;8371;52.272;9.746;2022-08-25T16:26:49;34.50;36.90
16517;DHT22;8371;52.272;9.746;2022-08-25T16:29:15;34.50;36.90
16517;DHT22;8371;52.272;9.746;2022-08-25T16:31:41;34.40;37.20
16517;DHT22;8371;52.272;9.746;2022-08-25T16:34:07;34.40;37.20
16517;DHT22;8371;52.272;9.746;2022-08-25T16:36:33;34.40;37.30
16517;DHT22;8371;52.272;9.746;2022-08-25T16:38:58;34.40;37.20
16517;DHT22;8371;52.272;9.746;2022-08-25T16:41:28;34.40;37.30
16517;DHT22;8371;52.272;9.746;2022-08-25T16:43:56;34.40;37.30
16517;DHT22;8371;52.272;9.746;2022-08-25T16:46:22;34.40;37.30
16517;DHT22;8371;52.272;9.746;2022-08-25T16:48:48;34.40;37.30
16517;DHT22;8371;52.272;9.746;2022-08-25T16:51:18;34.40;37.40
16517;DHT22;8371;52.272;9.746;2022-08-25T16:53:44;34.30;37.30
16517;DHT22;8371;52.272;9.746;2022-08-25T16:56:32;34.30;37.30
16517;DHT22;8371;52.272;9.746;2022-08-25T16:58:59;34.20;37.30
16517;DHT22;8371;52.272;9.746;2022-08-25T17:01:28;34.20;37.40
16517;DHT22;8371;52.272;9.746;2022-08-25T17:03:56;34.10;37.40
16517;DHT22;8371;52.272;9.746;2022-08-25T17:09:12;33.90;37.50
16517;DHT22;8371;52.272;9.746;2022-08-25T17:11:44;33.90;37.80
16517;DHT22;8371;52.272;9.746;2022-08-25T17:14:13;33.90;38.10
16517;DHT22;8371;52.272;9.746;2022-08-25T17:16:39;33.90;37.90
16517;DHT22;8371;52.272;9.746;2022-08-25T17:19:08;33.90;38.00
16517;DHT22;8371;52.272;9.746;2022-08-25T17:21:36;33.90;37.90
16517;DHT22;8371;52.272;9.746;2022-08-25T17:24:05;33.90;38.00
16517;DHT22;8371;52.272;9.746;2022-08-25T17:26:31;33.90;38.00
16517;DHT22;8371;52.272;9.746;2022-08-25T17:28:59;33.80;37.90
16517;DHT22;8371;52.272;9.746;2022-08-25T17:31:26;33.80;37.90
16517;DHT22;8371;52.272;9.746;2022-08-25T17:33:52;33.80;37.90
16517;DHT22;8371;52.272;9.746;2022-08-25T17:36:18;33.70;37.80
16517;DHT22;8371;52.272;9.746;2022-08-25T17:38:44;33.60;37.90
16517;DHT22;8371;52.272;9.746;2022-08-25T17:41:10;33.60;37.90
16517;DHT22;8371;52.272;9.746;2022-08-25T17:43:38;33.50;38.10
16517;DHT22;8371;52.272;9.746;2022-08-25T17:46:06;33.40;38.00
16517;DHT22;8371;52.272;9.746;2022-08-25T17:48:34;33.30;38.10
16517;DHT22;8371;52.272;9.746;2022-08-25T17:51:00;33.30;38.30